Time,TemperatureF,DewpointF,PressureIn,WindDirection,WindDirectionDegrees,WindSpeedMPH,WindSpeedGustMPH,Humidity,HourlyPrecipIn,Conditions,Clouds,dailyrainin,SoftwareType,DateUTC
2017-11-24 05:00:00,53.1,47.2,30.17,North,0,0.0,0.0,80,0.00,,,0.00,WUHU216HW,2017-11-24 13:00:00,
2017-11-24 05:01:00,52.9,47.0,30.18,North,0,0.0,0.0,80,0.00,,,0.00,WUHU216HW,2017-11-24 13:01:00,
2017-11-24 07:00:00,52.4,46.4,30.18,North,0,0.0,0.0,80,0.00,,,0.00,WUHU216HW,2017-11-24 15:00:00,
2017-11-24 07:05:00,52.4,46.4,30.18,North,0,0.0,0.0,80,0.00,,,0.00,WUHU216HW,2017-11-24 15:05:00,
2017-11-24 07:10:00,52.4,46.4,30.18,North,0,0.0,0.0,80,0.00,,,0.00,WUHU216HW,2017-11-24 15:10:00,
2017-11-24 07:30:00,53.1,47.2,30.19,North,0,0.0,0.0,80,0.00,,,0.00,WUHU216HW,2017-11-24 15:30:00,
2017-11-24 07:35:00,53.1,47.2,30.19,North,0,0.0,0.0,80,0.00,,,0.00,WUHU216HW,2017-11-24 15:35:00,
2017-11-24 08:00:00,53.8,47.9,30.19,North,0,0.0,0.0,80,0.00,,,0.00,WUHU216HW,2017-11-24 16:00:00,
2017-11-24 08:05:00,53.8,47.9,30.19,North,0,0.0,0.0,80,0.00,,,0.00,WUHU216HW,2017-11-24 16:05:00,
2017-11-24 08:30:00,58.7,50.8,30.19,North,0,0.0,0.0,75,0.00,,,0.00,WUHU216HW,2017-11-24 16:30:00,
2017-11-24 08:35:00,58.7,50.8,30.19,North,0,0.0,0.0,75,0.00,,,0.00,WUHU216HW,2017-11-24 16:35:00,
2017-11-24 09:00:00,62.3,51.2,30.20,North,0,0.0,0.0,67,0.00,,,0.00,WUHU216HW,2017-11-24 17:00:00,
2017-11-24 09:05:00,62.3,51.2,30.19,North,0,0.0,0.0,67,0.00,,,0.00,WUHU216HW,2017-11-24 17:05:00,
2017-11-24 09:30:00,65.9,52.1,30.20,North,0,0.0,0.0,61,0.00,,,0.00,WUHU216HW,2017-11-24 17:30:00,
2017-11-24 09:35:00,65.9,52.1,30.20,North,0,0.0,0.0,61,0.00,,,0.00,WUHU216HW,2017-11-24 17:35:00,
2017-11-24 10:00:00,66.4,51.7,30.19,North,0,0.0,0.0,59,0.00,,,0.00,WUHU216HW,2017-11-24 18:00:00,
2017-11-24 10:05:00,66.4,51.7,30.19,North,0,0.0,0.0,59,0.00,,,0.00,WUHU216HW,2017-11-24 18:05:00,
2017-11-24 10:29:00,69.1,52.2,30.19,North,0,0.0,0.0,55,0.00,,,0.00,WUHU216HW,2017-11-24 18:29:00,
2017-11-24 10:30:00,69.1,52.2,30.19,North,0,0.0,0.0,55,0.00,,,0.00,WUHU216HW,2017-11-24 18:30:00,
2017-11-24 10:35:00,69.1,52.2,30.19,North,0,0.0,0.0,55,0.00,,,0.00,WUHU216HW,2017-11-24 18:35:00,
2017-11-24 11:00:00,67.9,50.0,30.18,North,0,0.0,0.0,53,0.00,,,0.00,WUHU216HW,2017-11-24 19:00:00,